Savage Guardian — WDG6079 — position and weather

sailwx.info

Track history (hours):
 
Tides and Currents Weather Stations Pressure Air Temp Water Temp Dewpoint Dewpoint Depression Visibility Wind Speed Wind Dir Waves Ship Positions

Savage Guardian

Owner: Savage Inland Marine, Gibson, LA. More information available from US FCC via Universal Licensing System and Coast Guard Vessel Documentation Center.

Last reported at 2018-Feb-21 13:00 UTC. Time now 2018-Feb-21 13:16 UTC.
Position N 30°08' W 093°19'.

Length 22 m; draft 3 m.

Type: Tug. MMSI: 367553290.

Date/timePositionNaut miles runAvg speedWind from/ knotsBaromVisibWave heightAir tempDewpointWater temp
2018-Feb-21 13:00N 30°08' W 093°19'0 0.0
2018-Feb-21 12:30N 30°08' W 093°19'0 0.0
2018-Feb-21 12:00N 30°08' W 093°19'0 0.0
2018-Feb-21 11:30N 30°08' W 093°19'0 0.0
2018-Feb-21 11:00N 30°08' W 093°19'0 0.0
2018-Feb-21 10:30N 30°08' W 093°19'0 0.0
2018-Feb-21 10:00N 30°08' W 093°19'0 0.0
2018-Feb-21 09:30N 30°08' W 093°19'0 0.0
2018-Feb-21 09:00N 30°08' W 093°19'0 0.0
2018-Feb-21 08:30N 30°08' W 093°19'0 0.0
2018-Feb-21 08:00N 30°08' W 093°19'0 0.0
2018-Feb-21 07:30N 30°08' W 093°19'0 0.0
2018-Feb-21 07:00N 30°08' W 093°19'0 0.0
2018-Feb-21 06:30N 30°08' W 093°19'0 0.0
2018-Feb-21 06:00N 30°08' W 093°19'1 2.0
2018-Feb-21 05:30N 30°07' W 093°20'2 3.1
2018-Feb-21 05:00N 30°06' W 093°19'0 0.8
2018-Feb-21 04:30N 30°06' W 093°19'0 0.1
2018-Feb-21 04:00N 30°06' W 093°19'0 0.2
2018-Feb-21 03:30N 30°06' W 093°19'0 0.0
2018-Feb-21 03:00N 30°06' W 093°19'0 0.0
2018-Feb-21 02:30N 30°06' W 093°19'0 0.0
2018-Feb-21 02:00N 30°06' W 093°19'0 0.0
2018-Feb-21 01:28N 30°06' W 093°19'0 0.8
2018-Feb-21 01:00N 30°06' W 093°18'2 3.1
2018-Feb-21 00:30N 30°05' W 093°17'1 1.4
2018-Feb-21 00:00N 30°05' W 093°17'0 0.0
2018-Feb-20 23:30N 30°05' W 093°17'0 0.0
2018-Feb-20 23:00N 30°05' W 093°17'0 0.0
2018-Feb-20 22:30N 30°05' W 093°17'0 0.0
2018-Feb-20 22:00N 30°05' W 093°17'1 1.6
2018-Feb-20 21:30N 30°04' W 093°16'2 3.3
2018-Feb-20 21:00N 30°02' W 093°16'2 4.1
2018-Feb-20 20:30N 30°01' W 093°14'2 4.2
2018-Feb-20 20:00N 29°59' W 093°13'2 4.4
2018-Feb-20 19:28N 29°57' W 093°11'2 4.5
2018-Feb-20 19:00N 29°56' W 093°09'3 5.1
2018-Feb-20 18:30N 29°56' W 093°06'39 3.2
2018-Feb-20 06:20N 29°51' W 092°22'1 4.2
2018-Feb-20 06:00N 29°51' W 092°20'2 3.9
2018-Feb-20 05:30N 29°50' W 092°18'2 4.2
2018-Feb-20 05:00N 29°49' W 092°16'2 4.9
2018-Feb-20 04:30N 29°48' W 092°14'1 2.4
2018-Feb-20 04:00N 29°47' W 092°12'1 1.5
2018-Feb-20 03:30N 29°47' W 092°11'0 0.9
2018-Feb-20 03:00N 29°47' W 092°11'2 3.4
2018-Feb-20 02:30N 29°47' W 092°09'2 4.8
2018-Feb-20 02:00N 29°48' W 092°06'3 4.8
2018-Feb-20 01:28N 29°49' W 092°04'58 3.9
2018-Feb-19 10:41N 29°36' W 090°58'2 4.6
2018-Feb-19 10:20N 29°34' W 090°57'2 5.0
2018-Feb-19 10:00N 29°34' W 090°55'2 5.0
2018-Feb-19 09:30N 29°32' W 090°53'2 4.8
2018-Feb-19 09:00N 29°32' W 090°50'2 4.9
2018-Feb-19 08:30N 29°32' W 090°47'2 4.1
2018-Feb-19 08:00N 29°33' W 090°45'2 4.2
2018-Feb-19 07:30N 29°34' W 090°43'2 3.6
2018-Feb-19 06:59N 29°36' W 090°43'1 2.9
2018-Feb-19 06:30N 29°36' W 090°41'2 3.4
2018-Feb-19 06:00N 29°36' W 090°39'2 4.3
2018-Feb-19 05:30N 29°35' W 090°37'2 3.3
2018-Feb-19 05:00N 29°35' W 090°35'1 2.5
2018-Feb-19 04:28N 29°34' W 090°34'  
2018-Feb-15 15:20N 29°33' W 090°24'3 6.1
2018-Feb-15 14:53N 29°33' W 090°27'3 6.6
2018-Feb-15 14:30N 29°34' W 090°30'2 4.1
2018-Feb-15 14:00N 29°34' W 090°32'0 0.0
2018-Feb-15 13:30N 29°34' W 090°32'0 0.0
2018-Feb-15 13:00N 29°34' W 090°32'0 0.0
2018-Feb-15 12:30N 29°34' W 090°32'0 0.0
2018-Feb-15 12:00N 29°34' W 090°32'0 0.0
2018-Feb-15 11:30N 29°34' W 090°32'0 0.0
2018-Feb-15 11:00N 29°34' W 090°32'0 0.0
2018-Feb-15 10:30N 29°34' W 090°32'0 0.0
2018-Feb-15 10:00N 29°34' W 090°32'0 0.0
2018-Feb-15 09:30N 29°34' W 090°32'0 0.0
2018-Feb-15 09:00N 29°34' W 090°32'0 0.0
2018-Feb-15 08:30N 29°34' W 090°32'0 0.2
2018-Feb-15 08:00N 29°34' W 090°33'1 1.3
2018-Feb-15 07:30N 29°34' W 090°33'1 2.3
2018-Feb-15 07:00N 29°34' W 090°34'0 0.0
2018-Feb-15 06:30N 29°34' W 090°34'0 0.0
2018-Feb-15 06:00N 29°34' W 090°34'0 0.0
2018-Feb-15 05:30N 29°34' W 090°34'0 0.0
2018-Feb-15 04:59N 29°34' W 090°34'0 0.0
2018-Feb-15 04:30N 29°34' W 090°34'0 0.0
2018-Feb-15 04:00N 29°34' W 090°34'1 3.0
2018-Feb-15 03:30N 29°35' W 090°36'3 5.5
2018-Feb-15 03:00N 29°36' W 090°39'3 5.9
2018-Feb-15 02:30N 29°37' W 090°42'2 4.5
2018-Feb-15 02:00N 29°35' W 090°43'2 3.6
2018-Feb-15 01:30N 29°34' W 090°45'1 1.3
2018-Feb-15 01:00N 29°33' W 090°45'0 0.0
2018-Feb-15 00:30N 29°33' W 090°45'0 0.0
2018-Feb-15 00:00N 29°33' W 090°45'0 0.0
2018-Feb-14 23:30N 29°33' W 090°45'0 0.0
2018-Feb-14 22:59N 29°33' W 090°45'0 0.0
2018-Feb-14 22:30N 29°33' W 090°45'0 0.0
2018-Feb-14 22:00N 29°33' W 090°45'0 0.4
2018-Feb-14 21:29N 29°33' W 090°45'3 5.6
2018-Feb-14 20:59N 29°32' W 090°48'119 4.4
2018-Feb-13 17:46N 29°56' W 093°03'2 6.1
2018-Feb-13 17:29N 29°56' W 093°05'3 6.0
2018-Feb-13 17:00N 29°56' W 093°08'3 5.4
2018-Feb-13 16:27N 29°58' W 093°11'1 2.1
2018-Feb-13 15:59N 29°58' W 093°12'2 4.9
2018-Feb-13 15:30N 30°00' W 093°14'2 4.7
2018-Feb-13 15:00N 30°02' W 093°15'2 4.4
2018-Feb-13 14:29N 30°04' W 093°16'0 0.8
2018-Feb-13 14:00N 30°04' W 093°16'1 1.5
2018-Feb-13 13:30N 30°05' W 093°17'2 3.4
2018-Feb-13 13:00N 30°06' W 093°19'2 4.4
2018-Feb-13 12:31N 30°05' W 093°20'0 0.1
2018-Feb-13 12:00N 30°05' W 093°20'0 0.8
2018-Feb-13 11:27N 30°04' W 093°21'0 0.1
2018-Feb-13 11:01N 30°04' W 093°21'0 0.1
2018-Feb-13 10:30N 30°04' W 093°21'1 1.2
2018-Feb-13 10:00N 30°05' W 093°20'2 4.3
2018-Feb-13 09:30N 30°07' W 093°20'1 2.7
2018-Feb-13 08:59N 30°08' W 093°19'0 0.0
2018-Feb-13 08:30N 30°08' W 093°19'0 0.0
2018-Feb-13 07:55N 30°08' W 093°19'0 0.0
2018-Feb-13 07:27N 30°08' W 093°19'0 0.0
2018-Feb-13 07:01N 30°08' W 093°19'0 0.0
2018-Feb-13 06:30N 30°08' W 093°19'0 0.0
2018-Feb-13 06:00N 30°08' W 093°19'0 0.0
2018-Feb-13 05:29N 30°08' W 093°19'0 0.0
2018-Feb-13 05:00N 30°08' W 093°19'0 0.0
2018-Feb-13 04:31N 30°08' W 093°19'0 0.0
2018-Feb-13 03:59N 30°08' W 093°19'0 0.0
2018-Feb-13 03:31N 30°08' W 093°19'0 0.0
2018-Feb-13 03:00N 30°08' W 093°19'0 0.0
2018-Feb-13 02:30N 30°08' W 093°19'0 0.0
2018-Feb-13 02:00N 30°08' W 093°19'0 0.0
2018-Feb-13 01:30N 30°08' W 093°19'0 0.0
2018-Feb-13 01:00N 30°08' W 093°19'0 0.0
2018-Feb-13 00:30N 30°08' W 093°19'0 0.0
2018-Feb-13 00:01N 30°08' W 093°19'0 0.0
2018-Feb-12 23:30N 30°08' W 093°19'0 0.0
2018-Feb-12 23:00N 30°08' W 093°19'0 0.0
2018-Feb-12 22:30N 30°08' W 093°19'0 0.0
2018-Feb-12 22:01N 30°08' W 093°19'2 2.9
2018-Feb-12 21:28N 30°07' W 093°20'2 3.5
2018-Feb-12 20:55N 30°05' W 093°20'0 0.2
2018-Feb-12 20:27N 30°05' W 093°20'0 0.0
2018-Feb-12 20:00N 30°05' W 093°20'0 0.0
2018-Feb-12 19:25N 30°05' W 093°20'0 0.0
2018-Feb-12 19:00N 30°05' W 093°20'1 1.4
2018-Feb-12 18:30N 30°04' W 093°21'1 1.9
2018-Feb-12 18:00N 30°05' W 093°20'2 4.1
2018-Feb-12 17:29N 30°07' W 093°20'1 2.4
2018-Feb-12 17:00N 30°08' W 093°19'0 0.0
2018-Feb-12 16:29N 30°08' W 093°19'0 0.0
2018-Feb-12 15:59N 30°08' W 093°19'0 0.0
2018-Feb-12 15:31N 30°08' W 093°19'0 0.0
2018-Feb-12 14:57N 30°08' W 093°19'0 0.0
2018-Feb-12 14:25N 30°08' W 093°19'0 0.0
2018-Feb-12 14:00N 30°08' W 093°19'0 0.0
2018-Feb-12 12:59N 30°08' W 093°19'0 0.0
2018-Feb-12 12:30N 30°08' W 093°19'0 0.0
2018-Feb-12 11:57N 30°08' W 093°19'0 0.0
2018-Feb-12 11:27N 30°08' W 093°19'0 0.0
2018-Feb-12 10:59N 30°08' W 093°19'0 0.0
2018-Feb-12 10:30N 30°08' W 093°19'0 0.0
2018-Feb-12 09:48N 30°08' W 093°19'0 0.0
2018-Feb-12 09:24N 30°08' W 093°19'0 0.0
2018-Feb-12 08:47N 30°08' W 093°19'0 0.0
2018-Feb-12 08:29N 30°08' W 093°19'0 0.0
2018-Feb-12 07:55N 30°08' W 093°19'0 0.0
2018-Feb-12 07:30N 30°08' W 093°19'0 0.0
2018-Feb-12 06:59N 30°08' W 093°19'0 0.0
2018-Feb-12 06:30N 30°08' W 093°19'0 0.0
2018-Feb-12 05:54N 30°08' W 093°19'1 2.1
2018-Feb-12 05:31N 30°07' W 093°20'2 3.1
2018-Feb-12 05:00N 30°06' W 093°20'1 2.1
2018-Feb-12 04:27N 30°05' W 093°20'0 0.1
2018-Feb-12 03:57N 30°05' W 093°20'0 0.3
2018-Feb-12 03:30N 30°05' W 093°20'1 2.5
2018-Feb-12 02:59N 30°06' W 093°19'1 1.5
2018-Feb-12 02:29N 30°06' W 093°18'0 0.6
2018-Feb-12 02:00N 30°06' W 093°18'1 2.9
2018-Feb-12 01:30N 30°05' W 093°17'0 0.3
2018-Feb-12 01:00N 30°05' W 093°17'0 0.2
2018-Feb-12 00:30N 30°04' W 093°16'2 3.5
2018-Feb-12 00:00N 30°03' W 093°16'2 4.6
2018-Feb-11 23:30N 30°01' W 093°14'2 4.5
2018-Feb-11 23:00N 29°59' W 093°13'3 4.9
2018-Feb-11 22:29N 29°57' W 093°11'2 4.5
2018-Feb-11 22:00N 29°56' W 093°09'3 4.8
2018-Feb-11 21:25N 29°56' W 093°06'  
Track history (hours):
 
Tides and Currents Weather Stations Pressure Air Temp Water Temp Dewpoint Dewpoint Depression Visibility Wind Speed Wind Dir Waves Ship Positions

Savage Guardian

Owner: Savage Inland Marine, Gibson, LA. More information available from US FCC via Universal Licensing System and Coast Guard Vessel Documentation Center.

Last reported at 2018-Feb-21 13:00 UTC. Time now 2018-Feb-21 13:16 UTC.
Position N 30°08' W 093°19'.

Length 22 m; draft 3 m.

Type: Tug. MMSI: 367553290.

Date/timePositionNaut miles runAvg speedWind from/ knotsBaromVisibWave heightAir tempDewpointWater temp
2018-Feb-21 13:00N 30°08' W 093°19'0 0.0
2018-Feb-21 12:30N 30°08' W 093°19'0 0.0
2018-Feb-21 12:00N 30°08' W 093°19'0 0.0
2018-Feb-21 11:30N 30°08' W 093°19'0 0.0
2018-Feb-21 11:00N 30°08' W 093°19'0 0.0
2018-Feb-21 10:30N 30°08' W 093°19'0 0.0
2018-Feb-21 10:00N 30°08' W 093°19'0 0.0
2018-Feb-21 09:30N 30°08' W 093°19'0 0.0
2018-Feb-21 09:00N 30°08' W 093°19'0 0.0
2018-Feb-21 08:30N 30°08' W 093°19'0 0.0
2018-Feb-21 08:00N 30°08' W 093°19'0 0.0
2018-Feb-21 07:30N 30°08' W 093°19'0 0.0
2018-Feb-21 07:00N 30°08' W 093°19'0 0.0
2018-Feb-21 06:30N 30°08' W 093°19'0 0.0
2018-Feb-21 06:00N 30°08' W 093°19'1 2.0
2018-Feb-21 05:30N 30°07' W 093°20'2 3.1
2018-Feb-21 05:00N 30°06' W 093°19'0 0.8
2018-Feb-21 04:30N 30°06' W 093°19'0 0.1
2018-Feb-21 04:00N 30°06' W 093°19'0 0.2
2018-Feb-21 03:30N 30°06' W 093°19'0 0.0
2018-Feb-21 03:00N 30°06' W 093°19'0 0.0
2018-Feb-21 02:30N 30°06' W 093°19'0 0.0
2018-Feb-21 02:00N 30°06' W 093°19'0 0.0
2018-Feb-21 01:28N 30°06' W 093°19'0 0.8
2018-Feb-21 01:00N 30°06' W 093°18'2 3.1
2018-Feb-21 00:30N 30°05' W 093°17'1 1.4
2018-Feb-21 00:00N 30°05' W 093°17'0 0.0
2018-Feb-20 23:30N 30°05' W 093°17'0 0.0
2018-Feb-20 23:00N 30°05' W 093°17'0 0.0
2018-Feb-20 22:30N 30°05' W 093°17'0 0.0
2018-Feb-20 22:00N 30°05' W 093°17'1 1.6
2018-Feb-20 21:30N 30°04' W 093°16'2 3.3
2018-Feb-20 21:00N 30°02' W 093°16'2 4.1
2018-Feb-20 20:30N 30°01' W 093°14'2 4.2
2018-Feb-20 20:00N 29°59' W 093°13'2 4.4
2018-Feb-20 19:28N 29°57' W 093°11'2 4.5
2018-Feb-20 19:00N 29°56' W 093°09'3 5.1
2018-Feb-20 18:30N 29°56' W 093°06'39 3.2
2018-Feb-20 06:20N 29°51' W 092°22'1 4.2
2018-Feb-20 06:00N 29°51' W 092°20'2 3.9
2018-Feb-20 05:30N 29°50' W 092°18'2 4.2
2018-Feb-20 05:00N 29°49' W 092°16'2 4.9
2018-Feb-20 04:30N 29°48' W 092°14'1 2.4
2018-Feb-20 04:00N 29°47' W 092°12'1 1.5
2018-Feb-20 03:30N 29°47' W 092°11'0 0.9
2018-Feb-20 03:00N 29°47' W 092°11'2 3.4
2018-Feb-20 02:30N 29°47' W 092°09'2 4.8
2018-Feb-20 02:00N 29°48' W 092°06'3 4.8
2018-Feb-20 01:28N 29°49' W 092°04'58 3.9
2018-Feb-19 10:41N 29°36' W 090°58'2 4.6
2018-Feb-19 10:20N 29°34' W 090°57'2 5.0
2018-Feb-19 10:00N 29°34' W 090°55'2 5.0
2018-Feb-19 09:30N 29°32' W 090°53'2 4.8
2018-Feb-19 09:00N 29°32' W 090°50'2 4.9
2018-Feb-19 08:30N 29°32' W 090°47'2 4.1
2018-Feb-19 08:00N 29°33' W 090°45'2 4.2
2018-Feb-19 07:30N 29°34' W 090°43'2 3.6
2018-Feb-19 06:59N 29°36' W 090°43'1 2.9
2018-Feb-19 06:30N 29°36' W 090°41'2 3.4
2018-Feb-19 06:00N 29°36' W 090°39'2 4.3
2018-Feb-19 05:30N 29°35' W 090°37'2 3.3
2018-Feb-19 05:00N 29°35' W 090°35'1 2.5
2018-Feb-19 04:28N 29°34' W 090°34'  
2018-Feb-15 15:20N 29°33' W 090°24'3 6.1
2018-Feb-15 14:53N 29°33' W 090°27'3 6.6
2018-Feb-15 14:30N 29°34' W 090°30'2 4.1
2018-Feb-15 14:00N 29°34' W 090°32'0 0.0
2018-Feb-15 13:30N 29°34' W 090°32'0 0.0
2018-Feb-15 13:00N 29°34' W 090°32'0 0.0
2018-Feb-15 12:30N 29°34' W 090°32'0 0.0
2018-Feb-15 12:00N 29°34' W 090°32'0 0.0
2018-Feb-15 11:30N 29°34' W 090°32'0 0.0
2018-Feb-15 11:00N 29°34' W 090°32'0 0.0
2018-Feb-15 10:30N 29°34' W 090°32'0 0.0
2018-Feb-15 10:00N 29°34' W 090°32'0 0.0
2018-Feb-15 09:30N 29°34' W 090°32'0 0.0
2018-Feb-15 09:00N 29°34' W 090°32'0 0.0
2018-Feb-15 08:30N 29°34' W 090°32'0 0.2
2018-Feb-15 08:00N 29°34' W 090°33'1 1.3
2018-Feb-15 07:30N 29°34' W 090°33'1 2.3
2018-Feb-15 07:00N 29°34' W 090°34'0 0.0
2018-Feb-15 06:30N 29°34' W 090°34'0 0.0
2018-Feb-15 06:00N 29°34' W 090°34'0 0.0
2018-Feb-15 05:30N 29°34' W 090°34'0 0.0
2018-Feb-15 04:59N 29°34' W 090°34'0 0.0
2018-Feb-15 04:30N 29°34' W 090°34'0 0.0
2018-Feb-15 04:00N 29°34' W 090°34'1 3.0
2018-Feb-15 03:30N 29°35' W 090°36'3 5.5
2018-Feb-15 03:00N 29°36' W 090°39'3 5.9
2018-Feb-15 02:30N 29°37' W 090°42'2 4.5
2018-Feb-15 02:00N 29°35' W 090°43'2 3.6
2018-Feb-15 01:30N 29°34' W 090°45'1 1.3
2018-Feb-15 01:00N 29°33' W 090°45'0 0.0
2018-Feb-15 00:30N 29°33' W 090°45'0 0.0
2018-Feb-15 00:00N 29°33' W 090°45'0 0.0
2018-Feb-14 23:30N 29°33' W 090°45'0 0.0
2018-Feb-14 22:59N 29°33' W 090°45'0 0.0
2018-Feb-14 22:30N 29°33' W 090°45'0 0.0
2018-Feb-14 22:00N 29°33' W 090°45'0 0.4
2018-Feb-14 21:29N 29°33' W 090°45'3 5.6
2018-Feb-14 20:59N 29°32' W 090°48'119 4.4
2018-Feb-13 17:46N 29°56' W 093°03'2 6.1
2018-Feb-13 17:29N 29°56' W 093°05'3 6.0
2018-Feb-13 17:00N 29°56' W 093°08'3 5.4
2018-Feb-13 16:27N 29°58' W 093°11'1 2.1
2018-Feb-13 15:59N 29°58' W 093°12'2 4.9
2018-Feb-13 15:30N 30°00' W 093°14'2 4.7
2018-Feb-13 15:00N 30°02' W 093°15'2 4.4
2018-Feb-13 14:29N 30°04' W 093°16'0 0.8
2018-Feb-13 14:00N 30°04' W 093°16'1 1.5
2018-Feb-13 13:30N 30°05' W 093°17'2 3.4
2018-Feb-13 13:00N 30°06' W 093°19'2 4.4
2018-Feb-13 12:31N 30°05' W 093°20'0 0.1
2018-Feb-13 12:00N 30°05' W 093°20'0 0.8
2018-Feb-13 11:27N 30°04' W 093°21'0 0.1
2018-Feb-13 11:01N 30°04' W 093°21'0 0.1
2018-Feb-13 10:30N 30°04' W 093°21'1 1.2
2018-Feb-13 10:00N 30°05' W 093°20'2 4.3
2018-Feb-13 09:30N 30°07' W 093°20'1 2.7
2018-Feb-13 08:59N 30°08' W 093°19'0 0.0
2018-Feb-13 08:30N 30°08' W 093°19'0 0.0
2018-Feb-13 07:55N 30°08' W 093°19'0 0.0
2018-Feb-13 07:27N 30°08' W 093°19'0 0.0
2018-Feb-13 07:01N 30°08' W 093°19'0 0.0
2018-Feb-13 06:30N 30°08' W 093°19'0 0.0
2018-Feb-13 06:00N 30°08' W 093°19'0 0.0
2018-Feb-13 05:29N 30°08' W 093°19'0 0.0
2018-Feb-13 05:00N 30°08' W 093°19'0 0.0
2018-Feb-13 04:31N 30°08' W 093°19'0 0.0
2018-Feb-13 03:59N 30°08' W 093°19'0 0.0
2018-Feb-13 03:31N 30°08' W 093°19'0 0.0
2018-Feb-13 03:00N 30°08' W 093°19'0 0.0
2018-Feb-13 02:30N 30°08' W 093°19'0 0.0
2018-Feb-13 02:00N 30°08' W 093°19'0 0.0
2018-Feb-13 01:30N 30°08' W 093°19'0 0.0
2018-Feb-13 01:00N 30°08' W 093°19'0 0.0
2018-Feb-13 00:30N 30°08' W 093°19'0 0.0
2018-Feb-13 00:01N 30°08' W 093°19'0 0.0
2018-Feb-12 23:30N 30°08' W 093°19'0 0.0
2018-Feb-12 23:00N 30°08' W 093°19'0 0.0
2018-Feb-12 22:30N 30°08' W 093°19'0 0.0
2018-Feb-12 22:01N 30°08' W 093°19'2 2.9
2018-Feb-12 21:28N 30°07' W 093°20'2 3.5
2018-Feb-12 20:55N 30°05' W 093°20'0 0.2
2018-Feb-12 20:27N 30°05' W 093°20'0 0.0
2018-Feb-12 20:00N 30°05' W 093°20'0 0.0
2018-Feb-12 19:25N 30°05' W 093°20'0 0.0
2018-Feb-12 19:00N 30°05' W 093°20'1 1.4
2018-Feb-12 18:30N 30°04' W 093°21'1 1.9
2018-Feb-12 18:00N 30°05' W 093°20'2 4.1
2018-Feb-12 17:29N 30°07' W 093°20'1 2.4
2018-Feb-12 17:00N 30°08' W 093°19'0 0.0
2018-Feb-12 16:29N 30°08' W 093°19'0 0.0
2018-Feb-12 15:59N 30°08' W 093°19'0 0.0
2018-Feb-12 15:31N 30°08' W 093°19'0 0.0
2018-Feb-12 14:57N 30°08' W 093°19'0 0.0
2018-Feb-12 14:25N 30°08' W 093°19'0 0.0
2018-Feb-12 14:00N 30°08' W 093°19'0 0.0
2018-Feb-12 12:59N 30°08' W 093°19'0 0.0
2018-Feb-12 12:30N 30°08' W 093°19'0 0.0
2018-Feb-12 11:57N 30°08' W 093°19'0 0.0
2018-Feb-12 11:27N 30°08' W 093°19'0 0.0
2018-Feb-12 10:59N 30°08' W 093°19'0 0.0
2018-Feb-12 10:30N 30°08' W 093°19'0 0.0
2018-Feb-12 09:48N 30°08' W 093°19'0 0.0
2018-Feb-12 09:24N 30°08' W 093°19'0 0.0
2018-Feb-12 08:47N 30°08' W 093°19'0 0.0
2018-Feb-12 08:29N 30°08' W 093°19'0 0.0
2018-Feb-12 07:55N 30°08' W 093°19'0 0.0
2018-Feb-12 07:30N 30°08' W 093°19'0 0.0
2018-Feb-12 06:59N 30°08' W 093°19'0 0.0
2018-Feb-12 06:30N 30°08' W 093°19'0 0.0
2018-Feb-12 05:54N 30°08' W 093°19'1 2.1
2018-Feb-12 05:31N 30°07' W 093°20'2 3.1
2018-Feb-12 05:00N 30°06' W 093°20'1 2.1
2018-Feb-12 04:27N 30°05' W 093°20'0 0.1
2018-Feb-12 03:57N 30°05' W 093°20'0 0.3
2018-Feb-12 03:30N 30°05' W 093°20'1 2.5
2018-Feb-12 02:59N 30°06' W 093°19'1 1.5
2018-Feb-12 02:29N 30°06' W 093°18'0 0.6
2018-Feb-12 02:00N 30°06' W 093°18'1 2.9
2018-Feb-12 01:30N 30°05' W 093°17'0 0.3
2018-Feb-12 01:00N 30°05' W 093°17'0 0.2
2018-Feb-12 00:30N 30°04' W 093°16'2 3.5
2018-Feb-12 00:00N 30°03' W 093°16'2 4.6
2018-Feb-11 23:30N 30°01' W 093°14'2 4.5
2018-Feb-11 23:00N 29°59' W 093°13'3 4.9
2018-Feb-11 22:29N 29°57' W 093°11'2 4.5
2018-Feb-11 22:00N 29°56' W 093°09'3 4.8
2018-Feb-11 21:25N 29°56' W 093°06'  

Dump ship's entire track history